createdAt,value
2023-01-28T00:00:56.645Z,0.00
2023-01-28T00:01:57.633Z,0.00
2023-01-28T00:02:57.622Z,0.00
2023-01-28T00:03:56.644Z,0.00
2023-01-28T00:04:56.552Z,0.00
2023-01-28T00:05:57.571Z,0.00
2023-01-28T00:06:56.546Z,0.00
2023-01-28T00:07:56.554Z,0.00
2023-01-28T00:08:56.520Z,0.00
2023-01-28T00:09:56.554Z,0.00
2023-01-28T00:10:56.526Z,0.00
2023-01-28T00:11:56.496Z,0.00
2023-01-28T00:12:56.501Z,0.00
2023-01-28T00:13:56.450Z,0.00
2023-01-28T00:14:57.438Z,0.00
2023-01-28T00:15:56.526Z,0.00
2023-01-28T00:16:56.433Z,0.00
2023-01-28T00:17:56.405Z,0.00
2023-01-28T00:18:56.423Z,0.00
2023-01-28T00:19:56.438Z,0.00
2023-01-28T00:20:56.399Z,0.00
2023-01-28T00:21:57.403Z,0.00
2023-01-28T00:22:57.360Z,0.00
2023-01-28T00:23:56.385Z,0.00
2023-01-28T00:24:57.336Z,0.00
2023-01-28T00:25:56.346Z,0.00
2023-01-28T00:26:56.326Z,0.00
2023-01-28T00:27:56.350Z,0.00
2023-01-28T00:28:56.311Z,0.00
2023-01-28T00:29:56.347Z,0.00
2023-01-28T00:30:56.292Z,0.00
2023-01-28T00:31:57.322Z,0.00
2023-01-28T00:32:56.263Z,0.00
2023-01-28T00:33:56.278Z,0.00
2023-01-28T00:34:56.215Z,0.00
2023-01-28T00:35:56.231Z,0.00
2023-01-28T00:36:56.218Z,0.00
2023-01-28T00:37:56.198Z,0.00
2023-01-28T00:38:56.232Z,0.00
2023-01-28T00:39:56.176Z,0.00
2023-01-28T00:40:56.202Z,0.00
2023-01-28T00:41:56.180Z,0.00
2023-01-28T00:42:56.162Z,0.00
2023-01-28T00:43:57.147Z,0.00
2023-01-28T00:44:56.152Z,0.00
2023-01-28T00:45:56.141Z,0.00
2023-01-28T00:46:56.082Z,0.00
2023-01-28T00:47:56.157Z,0.00
2023-01-28T00:48:56.088Z,0.00
2023-01-28T00:49:56.076Z,0.00
2023-01-28T00:50:56.054Z,0.00
2023-01-28T00:51:56.091Z,0.00
2023-01-28T00:52:57.039Z,0.00
2023-01-28T00:53:57.011Z,0.00
2023-01-28T00:54:56.002Z,0.00
2023-01-28T00:55:56.034Z,0.00
2023-01-28T00:56:57.082Z,0.00
2023-01-28T00:57:56.004Z,0.00
2023-01-28T00:58:55.966Z,0.00
2023-01-28T00:59:55.971Z,0.00
2023-01-28T01:00:55.954Z,0.00
2023-01-28T01:01:55.967Z,0.00
2023-01-28T01:02:55.984Z,0.00
2023-01-28T01:03:55.911Z,0.00
2023-01-28T01:04:55.894Z,0.00
2023-01-28T01:05:55.890Z,0.00
2023-01-28T01:06:55.880Z,0.00
2023-01-28T01:07:55.895Z,0.00
2023-01-28T01:08:55.877Z,0.00
2023-01-28T01:09:55.848Z,0.00
2023-01-28T01:10:55.862Z,0.00
2023-01-28T01:11:55.823Z,0.00
2023-01-28T01:12:56.839Z,0.00
2023-01-28T01:13:55.838Z,0.00
2023-01-28T01:14:55.773Z,0.00
2023-01-28T01:15:55.802Z,0.00
2023-01-28T01:16:55.770Z,0.00
2023-01-28T01:17:56.773Z,0.00
2023-01-28T01:18:55.757Z,0.00
2023-01-28T01:19:55.763Z,0.00
2023-01-28T01:20:55.762Z,0.00
2023-01-28T01:21:55.718Z,0.00
2023-01-28T01:22:55.725Z,0.00
2023-01-28T01:23:56.745Z,0.00
2023-01-28T01:24:55.689Z,0.00
2023-01-28T01:25:55.654Z,0.00
2023-01-28T01:26:55.662Z,0.00
2023-01-28T01:27:55.648Z,0.00
2023-01-28T01:28:56.651Z,0.00
2023-01-28T01:29:55.686Z,0.00
2023-01-28T01:30:55.693Z,0.00
2023-01-28T01:31:56.644Z,0.00
2023-01-28T01:32:56.596Z,0.00
2023-01-28T01:33:55.585Z,0.00
2023-01-28T01:34:55.592Z,0.00
2023-01-28T01:35:55.588Z,0.00
2023-01-28T01:36:55.580Z,0.00
2023-01-28T01:37:55.526Z,0.00
2023-01-28T01:38:55.789Z,0.00
2023-01-28T01:39:55.608Z,0.00
2023-01-28T01:40:55.539Z,0.00
2023-01-28T01:41:55.496Z,0.00
2023-01-28T01:42:55.496Z,0.00
2023-01-28T01:43:55.472Z,0.00
2023-01-28T01:44:55.450Z,0.00
2023-01-28T01:45:56.512Z,0.00
2023-01-28T01:46:55.452Z,0.00
2023-01-28T01:47:55.430Z,0.00
2023-01-28T01:48:55.432Z,0.00
2023-01-28T01:49:56.390Z,0.00
2023-01-28T01:50:55.385Z,0.00
2023-01-28T01:51:55.901Z,0.00
2023-01-28T01:52:56.370Z,0.00
2023-01-28T01:53:55.385Z,0.00
2023-01-28T01:54:55.372Z,0.00
2023-01-28T01:55:55.337Z,0.00
2023-01-28T01:56:55.329Z,0.00
2023-01-28T01:57:56.334Z,0.00
2023-01-28T01:58:55.312Z,0.00
2023-01-28T01:59:55.300Z,0.00
2023-01-28T02:00:55.272Z,0.00
2023-01-28T02:01:55.355Z,0.00
2023-01-28T02:02:55.288Z,0.00
2023-01-28T02:03:55.272Z,0.00
2023-01-28T02:04:55.265Z,0.00
2023-01-28T02:05:55.245Z,0.00
2023-01-28T02:06:55.237Z,0.00
2023-01-28T02:07:55.210Z,0.00
2023-01-28T02:08:55.212Z,0.00
2023-01-28T02:09:56.182Z,0.00
2023-01-28T02:10:56.197Z,0.00
2023-01-28T02:11:56.169Z,0.00
2023-01-28T02:12:56.158Z,0.00
2023-01-28T02:13:57.104Z,0.00
2023-01-28T02:14:55.134Z,0.00
2023-01-28T02:15:55.123Z,0.00
2023-01-28T02:16:55.175Z,0.00
2023-01-28T02:17:55.111Z,0.00
2023-01-28T02:18:55.132Z,0.00
2023-01-28T02:19:55.078Z,0.00
2023-01-28T02:20:55.086Z,0.00
2023-01-28T02:21:55.061Z,0.00
2023-01-28T02:22:55.060Z,0.00
2023-01-28T02:23:55.087Z,0.00
2023-01-28T02:24:55.010Z,0.00
2023-01-28T02:25:55.013Z,0.00
2023-01-28T02:26:55.018Z,0.00
2023-01-28T02:27:54.990Z,0.00
2023-01-28T02:28:56.012Z,0.00
2023-01-28T02:29:54.973Z,0.00
2023-01-28T02:30:55.112Z,0.00
2023-01-28T02:31:56.071Z,0.00
2023-01-28T02:32:54.945Z,0.00
2023-01-28T02:33:54.930Z,0.00
2023-01-28T02:34:54.920Z,0.00
2023-01-28T02:35:54.943Z,0.00
2023-01-28T02:36:54.876Z,0.00
2023-01-28T02:37:54.882Z,0.00
2023-01-28T02:38:54.880Z,0.00
2023-01-28T02:39:54.898Z,0.00
2023-01-28T02:40:54.855Z,0.00
2023-01-28T02:41:55.847Z,0.00
2023-01-28T02:42:55.822Z,0.00
2023-01-28T02:43:54.817Z,0.00
2023-01-28T02:44:54.832Z,0.00
2023-01-28T02:45:54.816Z,0.00
2023-01-28T02:46:55.793Z,0.00
2023-01-28T02:47:54.802Z,0.00
2023-01-28T02:48:54.767Z,0.00
2023-01-28T02:49:54.758Z,0.00
2023-01-28T02:50:54.755Z,0.00
2023-01-28T02:51:54.727Z,0.00
2023-01-28T02:52:54.728Z,0.00
2023-01-28T02:53:54.729Z,0.00
2023-01-28T02:54:54.679Z,0.00
2023-01-28T02:55:54.682Z,0.00
2023-01-28T02:56:54.663Z,0.00
2023-01-28T02:57:54.665Z,0.00
2023-01-28T02:58:54.678Z,0.00
2023-01-28T02:59:54.641Z,0.00
2023-01-28T03:00:54.625Z,0.00
2023-01-28T03:01:54.683Z,0.00
2023-01-28T03:02:55.652Z,0.00
2023-01-28T03:03:55.612Z,0.00
2023-01-28T03:04:54.625Z,0.00
2023-01-28T03:05:54.654Z,0.00
2023-01-28T03:06:54.560Z,0.00
2023-01-28T03:07:54.549Z,0.00
2023-01-28T03:08:54.539Z,0.00
2023-01-28T03:09:54.536Z,0.00
2023-01-28T03:10:54.574Z,0.00
2023-01-28T03:11:54.512Z,0.00
2023-01-28T03:12:54.478Z,0.00
2023-01-28T03:13:54.525Z,0.00
2023-01-28T03:14:54.476Z,0.00
2023-01-28T03:15:54.539Z,0.00
2023-01-28T03:16:54.442Z,0.00
2023-01-28T03:17:54.475Z,0.00
2023-01-28T03:18:54.430Z,0.00
2023-01-28T03:19:54.438Z,0.00
2023-01-28T03:20:55.388Z,0.00
2023-01-28T03:21:55.431Z,0.00
2023-01-28T03:22:54.405Z,0.00
2023-01-28T03:23:54.417Z,0.00
2023-01-28T03:24:54.355Z,0.00
2023-01-28T03:25:55.395Z,0.00
2023-01-28T03:26:54.347Z,0.00
2023-01-28T03:27:54.342Z,0.00
2023-01-28T03:28:54.407Z,0.00
2023-01-28T03:29:54.290Z,0.00
2023-01-28T03:30:54.333Z,0.00
2023-01-28T03:31:54.385Z,0.00
2023-01-28T03:32:54.295Z,0.00
2023-01-28T03:33:54.253Z,0.00
2023-01-28T03:34:54.281Z,0.00
2023-01-28T03:35:54.243Z,0.00
2023-01-28T03:36:54.266Z,0.00
2023-01-28T03:37:54.241Z,0.00
2023-01-28T03:38:54.202Z,0.00
2023-01-28T03:39:54.228Z,0.00
2023-01-28T03:40:54.193Z,0.00
2023-01-28T03:41:55.185Z,0.00
2023-01-28T03:42:55.168Z,0.00
2023-01-28T03:43:54.141Z,0.00
2023-01-28T03:44:54.147Z,0.00
2023-01-28T03:45:54.165Z,0.00
2023-01-28T03:46:54.122Z,0.00
2023-01-28T03:47:54.126Z,0.00
2023-01-28T03:48:54.101Z,0.00
2023-01-28T03:49:54.095Z,0.00
2023-01-28T03:50:54.095Z,0.00
2023-01-28T03:51:55.060Z,0.00
2023-01-28T03:52:54.062Z,0.00
2023-01-28T03:53:54.056Z,0.00
2023-01-28T03:54:54.051Z,0.00
2023-01-28T03:55:54.048Z,0.00
2023-01-28T03:56:54.017Z,0.00
2023-01-28T03:57:53.987Z,0.00
2023-01-28T03:58:54.031Z,0.00
2023-01-28T03:59:53.996Z,0.00
2023-01-28T04:00:54.047Z,0.00
2023-01-28T04:01:54.004Z,0.00
2023-01-28T04:02:54.189Z,0.00
2023-01-28T04:03:53.920Z,0.00
2023-01-28T04:04:53.925Z,0.00
2023-01-28T04:05:53.966Z,0.00
2023-01-28T04:06:53.945Z,0.00
2023-01-28T04:07:53.952Z,0.00
2023-01-28T04:08:53.863Z,0.00
2023-01-28T04:09:53.885Z,0.00
2023-01-28T04:10:53.881Z,0.00
2023-01-28T04:11:53.863Z,0.00
2023-01-28T04:12:53.874Z,0.00
2023-01-28T04:13:53.819Z,0.00
2023-01-28T04:14:53.803Z,0.00
2023-01-28T04:15:53.826Z,0.00
2023-01-28T04:16:53.875Z,0.00
2023-01-28T04:17:53.795Z,0.00
2023-01-28T04:18:53.779Z,0.00
2023-01-28T04:19:54.744Z,0.00
2023-01-28T04:20:53.753Z,0.00
2023-01-28T04:21:53.721Z,0.00
2023-01-28T04:22:54.809Z,0.00
2023-01-28T04:23:53.803Z,0.00
2023-01-28T04:24:53.714Z,0.00
2023-01-28T04:25:53.739Z,0.00
2023-01-28T04:26:55.547Z,0.00
2023-01-28T04:27:53.683Z,0.00
2023-01-28T04:28:53.677Z,0.00
2023-01-28T04:29:53.646Z,0.00
2023-01-28T04:30:53.664Z,0.00
2023-01-28T04:31:53.653Z,0.00
2023-01-28T04:32:53.621Z,0.00
2023-01-28T04:33:53.630Z,0.00
2023-01-28T04:34:53.585Z,0.00
2023-01-28T04:35:53.568Z,0.00
2023-01-28T04:36:53.586Z,0.00
2023-01-28T04:37:53.549Z,0.00
2023-01-28T04:38:53.559Z,0.00
2023-01-28T04:39:54.569Z,0.00
2023-01-28T04:40:53.540Z,0.00
2023-01-28T04:41:53.534Z,0.00
2023-01-28T04:42:53.522Z,0.00
2023-01-28T04:43:54.503Z,0.00
2023-01-28T04:44:53.470Z,0.00
2023-01-28T04:45:53.496Z,0.00
2023-01-28T04:46:53.532Z,0.00
2023-01-28T04:47:53.499Z,0.00
2023-01-28T04:48:53.449Z,0.00
2023-01-28T04:49:53.459Z,0.00
2023-01-28T04:50:53.419Z,0.00
2023-01-28T04:51:53.409Z,0.00
2023-01-28T04:52:53.411Z,0.00
2023-01-28T04:53:53.388Z,0.00
2023-01-28T04:54:53.397Z,0.00
2023-01-28T04:55:53.435Z,0.00
2023-01-28T04:56:53.357Z,0.00
2023-01-28T04:57:53.369Z,0.00
2023-01-28T04:58:53.373Z,0.00
2023-01-28T04:59:53.319Z,0.00
2023-01-28T05:00:53.399Z,0.00
2023-01-28T05:01:53.330Z,0.00
2023-01-28T05:02:53.288Z,0.00
2023-01-28T05:03:53.768Z,0.00
2023-01-28T05:04:54.294Z,0.00
2023-01-28T05:05:53.281Z,0.00
2023-01-28T05:06:53.299Z,0.00
2023-01-28T05:07:53.239Z,0.00
2023-01-28T05:08:53.227Z,0.00
2023-01-28T05:09:53.228Z,0.00
2023-01-28T05:10:53.207Z,0.00
2023-01-28T05:11:53.227Z,0.00
2023-01-28T05:12:53.179Z,0.00
2023-01-28T05:13:53.185Z,0.00
2023-01-28T05:14:53.161Z,0.00
2023-01-28T05:15:54.146Z,0.00
2023-01-28T05:16:53.145Z,0.00
2023-01-28T05:17:53.145Z,0.00
2023-01-28T05:18:53.133Z,0.00
2023-01-28T05:19:54.112Z,0.00
2023-01-28T05:20:53.102Z,0.00
2023-01-28T05:21:53.081Z,0.00
2023-01-28T05:22:54.097Z,0.00
2023-01-28T05:23:53.123Z,0.00
2023-01-28T05:24:54.084Z,0.00
2023-01-28T05:25:53.039Z,0.00
2023-01-28T05:26:53.035Z,0.00
2023-01-28T05:27:53.041Z,0.00
2023-01-28T05:28:53.006Z,0.00
2023-01-28T05:29:53.016Z,0.00
2023-01-28T05:30:53.041Z,0.00
2023-01-28T05:31:52.983Z,0.00
2023-01-28T05:32:53.042Z,0.00
2023-01-28T05:33:52.953Z,0.00
2023-01-28T05:34:52.953Z,0.00
2023-01-28T05:35:52.945Z,0.00
2023-01-28T05:36:52.922Z,0.00
2023-01-28T05:37:52.893Z,0.00
2023-01-28T05:38:52.924Z,0.00
2023-01-28T05:39:52.870Z,0.00
2023-01-28T05:40:52.882Z,0.00
2023-01-28T05:41:52.861Z,0.00
2023-01-28T05:42:52.853Z,0.00
2023-01-28T05:43:52.845Z,0.00
2023-01-28T05:44:52.868Z,0.00
2023-01-28T05:45:52.888Z,0.00
2023-01-28T05:46:52.841Z,0.00
2023-01-28T05:47:52.798Z,0.00
2023-01-28T05:48:53.786Z,0.00
2023-01-28T05:49:52.810Z,0.00
2023-01-28T05:50:52.801Z,0.00
2023-01-28T05:51:52.752Z,0.00
2023-01-28T05:52:52.755Z,0.00
2023-01-28T05:53:52.739Z,0.00
2023-01-28T05:54:52.723Z,0.00
2023-01-28T05:55:52.769Z,0.00
2023-01-28T05:56:52.739Z,0.00
2023-01-28T05:57:52.695Z,0.00
2023-01-28T05:58:52.684Z,0.00
2023-01-28T05:59:52.740Z,0.00
2023-01-28T06:00:52.654Z,0.00
2023-01-28T06:01:52.671Z,0.00
2023-01-28T06:02:52.630Z,0.00
2023-01-28T06:03:52.631Z,0.00
2023-01-28T06:04:52.678Z,0.00
2023-01-28T06:05:52.597Z,0.00
2023-01-28T06:06:52.570Z,0.00
2023-01-28T06:07:53.576Z,0.00
2023-01-28T06:08:53.568Z,0.00
2023-01-28T06:09:52.564Z,0.00
2023-01-28T06:10:52.557Z,0.00
2023-01-28T06:11:52.585Z,0.00
2023-01-28T06:12:53.548Z,0.00
2023-01-28T06:13:52.520Z,0.00
2023-01-28T06:14:53.500Z,0.00
2023-01-28T06:15:52.530Z,0.00
2023-01-28T06:16:53.473Z,0.00
2023-01-28T06:17:52.469Z,0.00
2023-01-28T06:18:52.482Z,0.00
2023-01-28T06:19:52.441Z,0.00
2023-01-28T06:20:52.436Z,0.00
2023-01-28T06:21:52.436Z,0.00
2023-01-28T06:22:53.410Z,0.00
2023-01-28T06:23:52.465Z,0.00
2023-01-28T06:24:52.442Z,0.00
2023-01-28T06:25:52.362Z,0.00
2023-01-28T06:26:53.383Z,0.00
2023-01-28T06:27:52.371Z,0.00
2023-01-28T06:28:52.343Z,0.00
2023-01-28T06:29:52.375Z,0.00
2023-01-28T06:30:52.364Z,0.00
2023-01-28T06:31:53.380Z,0.00
2023-01-28T06:32:53.348Z,0.00
2023-01-28T06:33:52.326Z,0.00
2023-01-28T06:34:52.303Z,0.00
2023-01-28T06:35:52.342Z,0.00
2023-01-28T06:36:52.262Z,0.00
2023-01-28T06:37:52.253Z,0.00
2023-01-28T06:38:52.259Z,0.00
2023-01-28T06:39:52.256Z,4.00
2023-01-28T06:40:52.253Z,4.00
2023-01-28T06:41:52.193Z,4.00
2023-01-28T06:42:53.190Z,0.00
2023-01-28T06:43:52.193Z,0.00
2023-01-28T06:44:52.180Z,0.00
2023-01-28T06:45:52.197Z,4.00
2023-01-28T06:46:52.158Z,4.00
2023-01-28T06:47:52.214Z,4.00
2023-01-28T06:48:52.148Z,4.00
2023-01-28T06:49:52.176Z,4.00
2023-01-28T06:50:52.124Z,4.00
2023-01-28T06:51:52.120Z,4.00
2023-01-28T06:52:53.142Z,4.00
2023-01-28T06:53:52.072Z,4.00
2023-01-28T06:54:52.082Z,8.00
2023-01-28T06:55:52.065Z,4.00
2023-01-28T06:56:52.051Z,4.00
2023-01-28T06:57:52.023Z,4.00
2023-01-28T06:58:53.057Z,8.00
2023-01-28T06:59:52.019Z,8.00
2023-01-28T07:00:51.984Z,4.00
2023-01-28T07:01:51.995Z,8.00
2023-01-28T07:02:52.994Z,8.00
2023-01-28T07:03:52.968Z,8.00
2023-01-28T07:04:52.024Z,8.00
2023-01-28T07:05:51.951Z,12.00
2023-01-28T07:06:51.956Z,8.00
2023-01-28T07:07:52.950Z,12.00
2023-01-28T07:08:51.903Z,12.00
2023-01-28T07:09:51.921Z,12.00
2023-01-28T07:10:52.963Z,12.00
2023-01-28T07:11:51.885Z,12.00
2023-01-28T07:12:51.846Z,16.00
2023-01-28T07:13:51.853Z,16.00
2023-01-28T07:14:51.826Z,16.00
2023-01-28T07:15:51.868Z,20.00
2023-01-28T07:16:52.863Z,16.00
2023-01-28T07:17:51.814Z,20.00
2023-01-28T07:18:51.796Z,20.00
2023-01-28T07:19:51.803Z,24.00
2023-01-28T07:20:51.804Z,20.00
2023-01-28T07:21:51.851Z,24.00
2023-01-28T07:22:51.778Z,24.00
2023-01-28T07:23:51.743Z,24.00
2023-01-28T07:24:51.741Z,28.00
2023-01-28T07:25:51.737Z,28.00
2023-01-28T07:26:51.717Z,28.00
2023-01-28T07:27:51.695Z,28.00
2023-01-28T07:28:52.778Z,32.00
2023-01-28T07:29:51.680Z,32.00
2023-01-28T07:30:53.604Z,32.00
2023-01-28T07:31:51.763Z,32.00
2023-01-28T07:32:51.672Z,36.00
2023-01-28T07:33:51.630Z,36.00
2023-01-28T07:34:51.639Z,36.00
2023-01-28T07:35:51.612Z,36.00
2023-01-28T07:36:52.586Z,36.00
2023-01-28T07:37:51.621Z,36.00
2023-01-28T07:38:51.601Z,36.00
2023-01-28T07:39:51.567Z,32.00
2023-01-28T07:40:51.568Z,32.00
2023-01-28T07:41:52.548Z,32.00
2023-01-28T07:42:51.539Z,32.00
2023-01-28T07:43:51.527Z,36.00
2023-01-28T07:44:51.500Z,36.00
2023-01-28T07:45:51.498Z,36.00
2023-01-28T07:46:51.560Z,36.00
2023-01-28T07:47:51.479Z,40.00
2023-01-28T07:48:51.485Z,40.00
2023-01-28T07:49:51.439Z,40.00
2023-01-28T07:50:51.430Z,44.00
2023-01-28T07:51:51.433Z,40.00
2023-01-28T07:52:51.497Z,48.00
2023-01-28T07:53:51.464Z,48.00
2023-01-28T07:54:51.396Z,48.00
2023-01-28T07:55:51.397Z,44.00
2023-01-28T07:56:51.363Z,48.00
2023-01-28T07:57:51.365Z,52.00
2023-01-28T07:58:51.374Z,48.00
2023-01-28T07:59:51.368Z,52.00
2023-01-28T08:00:51.365Z,52.00
2023-01-28T08:01:52.583Z,52.00
2023-01-28T08:02:52.322Z,52.00
2023-01-28T08:03:52.333Z,52.00
2023-01-28T08:04:51.410Z,52.00
2023-01-28T08:05:51.285Z,52.00
2023-01-28T08:06:51.285Z,56.00
2023-01-28T08:07:51.247Z,56.00
2023-01-28T08:08:52.383Z,56.00
2023-01-28T08:09:51.242Z,52.00
2023-01-28T08:10:51.237Z,56.00
2023-01-28T08:11:51.247Z,52.00
2023-01-28T08:12:51.220Z,52.00
2023-01-28T08:13:52.193Z,52.00
2023-01-28T08:14:51.206Z,56.00
2023-01-28T08:15:51.284Z,56.00
2023-01-28T08:16:51.197Z,56.00
2023-01-28T08:17:52.177Z,52.00
2023-01-28T08:18:51.191Z,52.00
2023-01-28T08:19:51.115Z,52.00
2023-01-28T08:20:51.115Z,60.00
2023-01-28T08:21:51.114Z,60.00
2023-01-28T08:22:51.148Z,64.00
2023-01-28T08:23:51.097Z,64.00
2023-01-28T08:24:52.092Z,64.00
2023-01-28T08:25:52.084Z,64.00
2023-01-28T08:26:51.061Z,68.00
2023-01-28T08:27:51.035Z,68.00
2023-01-28T08:28:51.746Z,72.00
2023-01-28T08:29:52.040Z,72.00
2023-01-28T08:30:51.106Z,72.00
2023-01-28T08:31:51.101Z,68.00
2023-01-28T08:32:51.993Z,68.00
2023-01-28T08:33:50.977Z,72.00
2023-01-28T08:34:50.973Z,72.00
2023-01-28T08:35:52.006Z,76.00
2023-01-28T08:36:51.942Z,76.00
2023-01-28T08:37:50.924Z,80.00
2023-01-28T08:38:50.919Z,84.00
2023-01-28T08:39:50.918Z,92.00
2023-01-28T08:40:50.898Z,92.00
2023-01-28T08:41:51.914Z,96.00
2023-01-28T08:42:50.891Z,96.00
2023-01-28T08:43:58.554Z,100.00
2023-01-28T08:44:51.847Z,104.00
2023-01-28T08:45:51.848Z,108.00
2023-01-28T08:46:51.815Z,112.00
2023-01-28T08:47:50.834Z,112.00
2023-01-28T08:48:50.841Z,120.00
2023-01-28T08:49:50.826Z,124.00
2023-01-28T08:50:50.820Z,124.00
2023-01-28T08:51:50.759Z,128.00
2023-01-28T08:52:51.190Z,128.00
2023-01-28T08:53:50.770Z,132.00
2023-01-28T08:54:50.783Z,128.00
2023-01-28T08:55:50.734Z,132.00
2023-01-28T08:56:50.784Z,132.00
2023-01-28T08:57:50.725Z,136.00
2023-01-28T08:58:50.712Z,136.00
2023-01-28T08:59:50.726Z,140.00
2023-01-28T09:00:50.675Z,136.00
2023-01-28T09:01:51.714Z,140.00
2023-01-28T09:02:50.660Z,136.00
2023-01-28T09:03:50.702Z,140.00
2023-01-28T09:04:51.631Z,136.00
2023-01-28T09:05:50.644Z,136.00
2023-01-28T09:06:51.632Z,140.00
2023-01-28T09:07:50.626Z,136.00
2023-01-28T09:08:50.587Z,136.00
2023-01-28T09:09:50.599Z,132.00
2023-01-28T09:10:50.585Z,132.00
2023-01-28T09:11:50.539Z,124.00
2023-01-28T09:12:51.579Z,124.00
2023-01-28T09:13:51.557Z,120.00
2023-01-28T09:14:50.522Z,124.00
2023-01-28T09:15:50.597Z,124.00
2023-01-28T09:16:50.509Z,120.00
2023-01-28T09:17:50.500Z,120.00
2023-01-28T09:18:50.522Z,120.00
2023-01-28T09:19:50.470Z,124.00
2023-01-28T09:20:50.505Z,124.00
2023-01-28T09:21:58.079Z,128.00
2023-01-28T09:22:51.421Z,128.00
2023-01-28T09:23:50.453Z,124.00
2023-01-28T09:24:50.437Z,128.00
2023-01-28T09:25:50.481Z,128.00
2023-01-28T09:26:50.416Z,132.00
2023-01-28T09:27:51.411Z,136.00
2023-01-28T09:28:50.406Z,136.00
2023-01-28T09:29:50.365Z,140.00
2023-01-28T09:30:50.411Z,140.00
2023-01-28T09:31:50.415Z,144.00
2023-01-28T09:32:50.369Z,144.00
2023-01-28T09:33:50.329Z,144.00
2023-01-28T09:34:50.313Z,148.00
2023-01-28T09:35:50.292Z,152.00
2023-01-28T09:36:50.290Z,152.00
2023-01-28T09:37:50.293Z,152.00
2023-01-28T09:38:51.271Z,152.00
2023-01-28T09:39:50.266Z,152.00
2023-01-28T09:40:51.259Z,156.00
2023-01-28T09:41:50.235Z,156.00
2023-01-28T09:42:50.296Z,160.00
2023-01-28T09:43:51.215Z,160.00
2023-01-28T09:44:50.190Z,156.00
2023-01-28T09:45:51.233Z,160.00
2023-01-28T09:46:50.220Z,160.00
2023-01-28T09:47:50.168Z,160.00
2023-01-28T09:48:50.150Z,164.00
2023-01-28T09:49:50.154Z,164.00
2023-01-28T09:50:50.135Z,164.00
2023-01-28T09:51:50.134Z,168.00
2023-01-28T09:52:50.117Z,176.00
2023-01-28T09:53:50.196Z,180.00
2023-01-28T09:54:50.090Z,184.00
2023-01-28T09:55:50.058Z,180.00
2023-01-28T09:56:50.091Z,176.00
2023-01-28T09:57:50.071Z,180.00
2023-01-28T09:58:50.092Z,180.00
2023-01-28T09:59:50.043Z,176.00
2023-01-28T10:00:50.044Z,180.00
2023-01-28T10:01:50.048Z,180.00
2023-01-28T10:02:50.013Z,176.00
2023-01-28T10:03:50.085Z,176.00
2023-01-28T10:04:49.988Z,172.00
2023-01-28T10:05:49.967Z,172.00
2023-01-28T10:06:49.953Z,168.00
2023-01-28T10:07:49.934Z,168.00
2023-01-28T10:08:49.985Z,172.00
2023-01-28T10:09:49.947Z,176.00
2023-01-28T10:10:49.911Z,176.00
2023-01-28T10:11:49.902Z,176.00
2023-01-28T10:12:49.918Z,176.00
2023-01-28T10:13:49.880Z,172.00
2023-01-28T10:14:49.889Z,172.00
2023-01-28T10:15:50.860Z,172.00
2023-01-28T10:16:50.889Z,168.00
2023-01-28T10:17:49.871Z,172.00
2023-01-28T10:18:49.825Z,172.00
2023-01-28T10:19:49.822Z,172.00
2023-01-28T10:20:49.815Z,168.00
2023-01-28T10:21:49.884Z,164.00
2023-01-28T10:22:49.827Z,172.00
2023-01-28T10:23:49.786Z,168.00
2023-01-28T10:24:50.762Z,172.00
2023-01-28T10:25:49.755Z,176.00
2023-01-28T10:26:49.818Z,172.00
2023-01-28T10:27:49.723Z,172.00
2023-01-28T10:28:49.779Z,172.00
2023-01-28T10:29:49.699Z,176.00
2023-01-28T10:30:50.717Z,176.00
2023-01-28T10:31:49.732Z,176.00
2023-01-28T10:32:49.675Z,180.00
2023-01-28T10:33:49.656Z,188.00
2023-01-28T10:34:49.700Z,188.00
2023-01-28T10:35:49.615Z,196.00
2023-01-28T10:36:49.663Z,196.00
2023-01-28T10:37:50.591Z,196.00
2023-01-28T10:38:49.588Z,200.00
2023-01-28T10:39:49.584Z,204.00
2023-01-28T10:40:49.610Z,208.00
2023-01-28T10:41:57.743Z,212.00
2023-01-28T10:42:50.591Z,216.00
2023-01-28T10:43:49.563Z,220.00
2023-01-28T10:44:49.536Z,224.00
2023-01-28T10:45:49.595Z,224.00
2023-01-28T10:46:49.584Z,228.00
2023-01-28T10:47:49.527Z,228.00
2023-01-28T10:48:49.500Z,228.00
2023-01-28T10:49:49.572Z,224.00
2023-01-28T10:50:49.474Z,224.00
2023-01-28T10:51:49.472Z,228.00
2023-01-28T10:52:49.437Z,232.00
2023-01-28T10:53:49.474Z,232.00
2023-01-28T10:54:49.468Z,232.00
2023-01-28T10:55:49.441Z,240.00
2023-01-28T10:56:49.389Z,244.00
2023-01-28T10:57:50.388Z,252.00
2023-01-28T10:58:49.388Z,256.00
2023-01-28T10:59:50.382Z,260.00
2023-01-28T11:00:49.393Z,264.00
2023-01-28T11:01:49.370Z,268.00
2023-01-28T11:02:49.348Z,268.00
2023-01-28T11:03:50.318Z,268.00
2023-01-28T11:04:49.339Z,272.00
2023-01-28T11:05:49.315Z,268.00
2023-01-28T11:06:49.298Z,264.00
2023-01-28T11:07:49.297Z,260.00
2023-01-28T11:08:49.282Z,256.00
2023-01-28T11:09:49.265Z,252.00
2023-01-28T11:10:49.268Z,252.00
2023-01-28T11:11:50.059Z,248.00
2023-01-28T11:12:49.250Z,248.00
2023-01-28T11:13:49.230Z,256.00
2023-01-28T11:14:50.217Z,260.00
2023-01-28T11:15:49.198Z,264.00
2023-01-28T11:16:50.191Z,272.00
2023-01-28T11:17:50.256Z,272.00
2023-01-28T11:18:49.181Z,276.00
2023-01-28T11:19:49.175Z,272.00
2023-01-28T11:20:49.140Z,268.00
2023-01-28T11:21:49.155Z,264.00
2023-01-28T11:22:49.123Z,260.00
2023-01-28T11:23:49.107Z,256.00
2023-01-28T11:24:49.117Z,252.00
2023-01-28T11:25:49.084Z,252.00
2023-01-28T11:26:50.082Z,256.00
2023-01-28T11:27:49.062Z,256.00
2023-01-28T11:28:49.037Z,260.00
2023-01-28T11:29:49.073Z,256.00
2023-01-28T11:30:49.056Z,252.00
2023-01-28T11:31:49.132Z,248.00
2023-01-28T11:32:49.011Z,244.00
2023-01-28T11:33:49.005Z,236.00
2023-01-28T11:34:50.021Z,236.00
2023-01-28T11:35:48.985Z,232.00
2023-01-28T11:36:50.009Z,232.00
2023-01-28T11:37:48.977Z,228.00
2023-01-28T11:38:48.948Z,228.00
2023-01-28T11:39:48.947Z,228.00
2023-01-28T11:40:48.977Z,232.00
2023-01-28T11:41:49.938Z,228.00
2023-01-28T11:42:48.924Z,228.00
2023-01-28T11:43:49.883Z,232.00
2023-01-28T11:44:48.869Z,236.00
2023-01-28T11:45:49.883Z,236.00
2023-01-28T11:46:48.891Z,236.00
2023-01-28T11:47:48.870Z,232.00
2023-01-28T11:48:48.874Z,228.00
2023-01-28T11:49:48.820Z,224.00
2023-01-28T11:50:48.862Z,220.00
2023-01-28T11:51:49.910Z,220.00
2023-01-28T11:53:05.869Z,216.00
2023-01-28T11:53:49.824Z,212.00
2023-01-28T11:54:48.767Z,208.00
2023-01-28T11:55:48.752Z,208.00
2023-01-28T11:56:48.750Z,208.00
2023-01-28T11:57:48.735Z,212.00
2023-01-28T11:58:49.789Z,212.00
2023-01-28T11:59:48.743Z,208.00
2023-01-28T12:00:48.701Z,208.00
2023-01-28T12:01:48.700Z,204.00
2023-01-28T12:02:49.719Z,200.00
2023-01-28T12:03:48.719Z,200.00
2023-01-28T12:04:48.740Z,200.00
2023-01-28T12:05:48.639Z,192.00
2023-01-28T12:06:49.690Z,188.00
2023-01-28T12:07:49.080Z,180.00
2023-01-28T12:08:48.625Z,176.00
2023-01-28T12:09:48.644Z,172.00
2023-01-28T12:10:48.589Z,164.00
2023-01-28T12:11:48.593Z,164.00
2023-01-28T12:12:48.579Z,156.00
2023-01-28T12:13:49.539Z,152.00
2023-01-28T12:14:48.547Z,148.00
2023-01-28T12:15:48.608Z,144.00
2023-01-28T12:16:49.556Z,140.00
2023-01-28T12:17:48.520Z,136.00
2023-01-28T12:18:48.548Z,132.00
2023-01-28T12:19:48.489Z,132.00
2023-01-28T12:20:48.483Z,132.00
2023-01-28T12:21:48.524Z,132.00
2023-01-28T12:22:48.475Z,132.00
2023-01-28T12:23:48.471Z,132.00
2023-01-28T12:24:48.438Z,136.00
2023-01-28T12:25:48.443Z,136.00
2023-01-28T12:26:48.415Z,136.00
2023-01-28T12:27:49.461Z,136.00
2023-01-28T12:28:48.391Z,136.00
2023-01-28T12:29:48.388Z,136.00
2023-01-28T12:30:48.397Z,140.00
2023-01-28T12:31:48.440Z,140.00
2023-01-28T12:32:48.347Z,144.00
2023-01-28T12:33:48.529Z,144.00
2023-01-28T12:34:48.339Z,144.00
2023-01-28T12:35:48.303Z,144.00
2023-01-28T12:36:48.376Z,144.00
2023-01-28T12:37:49.358Z,140.00
2023-01-28T12:38:48.270Z,136.00
2023-01-28T12:39:49.252Z,132.00
2023-01-28T12:40:48.246Z,132.00
2023-01-28T12:41:48.281Z,132.00
2023-01-28T12:42:48.240Z,132.00
2023-01-28T12:43:48.260Z,132.00
2023-01-28T12:44:48.204Z,128.00
2023-01-28T12:45:48.216Z,128.00
2023-01-28T12:46:49.246Z,128.00
2023-01-28T12:47:48.193Z,132.00
2023-01-28T12:48:48.173Z,136.00
2023-01-28T12:49:48.170Z,144.00
2023-01-28T12:50:48.155Z,144.00
2023-01-28T12:51:49.173Z,144.00
2023-01-28T12:52:48.179Z,140.00
2023-01-28T12:53:48.121Z,140.00
2023-01-28T12:54:49.099Z,144.00
2023-01-28T12:55:48.111Z,148.00
2023-01-28T12:56:48.098Z,148.00
2023-01-28T12:57:48.111Z,148.00
2023-01-28T12:58:48.094Z,152.00